createdAt,value
2023-02-02T00:01:30.560Z,6.04
2023-02-02T00:03:57.684Z,6.05
2023-02-02T00:06:26.079Z,6.06
2023-02-02T00:08:53.411Z,6.08
2023-02-02T00:11:20.241Z,6.06
2023-02-02T00:13:47.168Z,6.06
2023-02-02T00:16:26.043Z,6.03
2023-02-02T00:18:59.350Z,6.00
2023-02-02T00:21:26.768Z,5.97
2023-02-02T00:23:53.467Z,5.95
2023-02-02T00:26:20.860Z,5.93
2023-02-02T00:28:48.153Z,5.91
2023-02-02T00:31:14.878Z,5.90
2023-02-02T00:33:45.596Z,5.91
2023-02-02T00:36:12.268Z,5.92
2023-02-02T00:38:39.069Z,5.92
2023-02-02T00:41:08.780Z,5.91
2023-02-02T00:43:35.447Z,5.91
2023-02-02T00:46:02.376Z,5.92
2023-02-02T00:48:29.204Z,5.88
2023-02-02T00:50:56.028Z,5.84
2023-02-02T00:53:22.792Z,5.84
2023-02-02T00:55:49.466Z,5.82
2023-02-02T00:58:16.145Z,5.83
2023-02-02T01:00:42.952Z,5.79
2023-02-02T01:03:09.757Z,5.77
2023-02-02T01:05:36.785Z,5.76
2023-02-02T01:08:03.510Z,5.76
2023-02-02T01:10:30.457Z,5.77
2023-02-02T01:12:58.929Z,5.75
2023-02-02T01:15:25.908Z,5.78
2023-02-02T01:17:52.709Z,5.78
2023-02-02T01:20:20.665Z,5.77
2023-02-02T01:22:47.747Z,5.78
2023-02-02T01:25:14.739Z,5.77
2023-02-02T01:27:43.123Z,5.78
2023-02-02T01:30:10.807Z,5.80
2023-02-02T01:32:37.556Z,5.82
2023-02-02T01:35:04.569Z,5.82
2023-02-02T01:37:31.393Z,5.83
2023-02-02T01:39:58.049Z,5.83
2023-02-02T01:42:24.923Z,5.86
2023-02-02T01:45:03.824Z,5.89
2023-02-02T01:47:35.370Z,5.88
2023-02-02T01:50:03.339Z,5.88
2023-02-02T01:52:32.481Z,5.87
2023-02-02T01:55:04.435Z,5.86
2023-02-02T01:57:38.291Z,5.85
2023-02-02T02:00:10.206Z,5.85
2023-02-02T02:02:38.767Z,5.86
2023-02-02T02:05:07.630Z,5.86
2023-02-02T02:07:34.608Z,5.87
2023-02-02T02:10:01.281Z,5.87
2023-02-02T02:12:27.959Z,5.90
2023-02-02T02:15:13.325Z,5.90
2023-02-02T02:18:02.960Z,5.86
2023-02-02T02:21:16.314Z,5.85
2023-02-02T02:24:23.685Z,5.86
2023-02-02T02:27:04.185Z,5.89
2023-02-02T02:30:12.875Z,5.87
2023-02-02T02:32:50.898Z,5.89
2023-02-02T02:35:28.597Z,5.88
2023-02-02T02:38:17.956Z,5.88
2023-02-02T02:40:51.552Z,5.88
2023-02-02T02:43:29.154Z,5.89
2023-02-02T02:45:56.392Z,5.91
2023-02-02T02:48:23.416Z,5.93
2023-02-02T02:50:50.117Z,5.95
2023-02-02T02:53:22.339Z,5.95
2023-02-02T02:56:01.549Z,5.95
2023-02-02T02:59:02.553Z,5.96
2023-02-02T03:01:49.976Z,5.95
2023-02-02T03:04:32.423Z,5.95
2023-02-02T03:07:14.183Z,5.95
2023-02-02T03:09:44.239Z,5.96
2023-02-02T03:12:10.959Z,5.94
2023-02-02T03:14:38.117Z,5.94
2023-02-02T03:17:04.902Z,5.90
2023-02-02T03:19:31.632Z,5.90
2023-02-02T03:21:58.395Z,5.91
2023-02-02T03:24:25.161Z,5.91
2023-02-02T03:26:52.117Z,5.92
2023-02-02T03:29:19.032Z,5.91
2023-02-02T03:31:46.698Z,5.91
2023-02-02T03:34:13.525Z,5.91
2023-02-02T03:36:40.243Z,5.91
2023-02-02T03:39:06.927Z,5.94
2023-02-02T03:41:33.683Z,5.94
2023-02-02T03:44:00.330Z,5.95
2023-02-02T03:46:27.701Z,5.95
2023-02-02T03:48:54.450Z,5.96
2023-02-02T03:51:21.232Z,5.97
2023-02-02T03:53:48.089Z,5.97
2023-02-02T03:56:16.007Z,5.98
2023-02-02T03:58:42.678Z,5.98
2023-02-02T04:01:14.612Z,5.99
2023-02-02T04:03:41.778Z,6.00
2023-02-02T04:06:08.764Z,6.01
2023-02-02T04:08:35.477Z,6.00
2023-02-02T04:11:02.411Z,5.99
2023-02-02T04:13:29.232Z,5.98
2023-02-02T04:16:00.176Z,5.99
2023-02-02T04:18:27.742Z,5.99
2023-02-02T04:21:01.748Z,6.01
2023-02-02T04:23:29.538Z,6.03
2023-02-02T04:25:57.102Z,6.01
2023-02-02T04:28:24.507Z,6.02
2023-02-02T04:30:52.744Z,6.02
2023-02-02T04:33:20.374Z,6.03
2023-02-02T04:35:47.328Z,6.04
2023-02-02T04:38:14.273Z,6.05
2023-02-02T04:40:43.034Z,6.03
2023-02-02T04:43:09.910Z,6.05
2023-02-02T04:45:36.815Z,6.05
2023-02-02T04:48:03.980Z,6.02
2023-02-02T04:50:31.115Z,6.01
2023-02-02T04:52:58.037Z,6.02
2023-02-02T04:55:25.075Z,6.03
2023-02-02T04:57:52.013Z,5.99
2023-02-02T05:00:19.124Z,6.00
2023-02-02T05:02:46.145Z,6.02
2023-02-02T05:05:14.135Z,6.00
2023-02-02T05:07:41.072Z,6.00
2023-02-02T05:10:09.847Z,6.03
2023-02-02T05:12:36.613Z,6.02
2023-02-02T05:15:05.403Z,6.03
2023-02-02T05:17:32.765Z,6.04
2023-02-02T05:19:59.562Z,6.00
2023-02-02T05:22:26.911Z,5.99
2023-02-02T05:24:53.697Z,6.00
2023-02-02T05:27:20.936Z,6.03
2023-02-02T05:29:48.159Z,6.03
2023-02-02T05:32:15.299Z,6.02
2023-02-02T05:34:42.183Z,6.01
2023-02-02T05:37:09.080Z,6.02
2023-02-02T05:39:35.821Z,5.99
2023-02-02T05:42:02.538Z,5.97
2023-02-02T05:44:29.316Z,5.97
2023-02-02T05:46:56.080Z,5.95
2023-02-02T05:49:23.189Z,5.97
2023-02-02T05:51:54.033Z,5.98
2023-02-02T05:54:21.501Z,5.97
2023-02-02T05:56:49.356Z,5.98
2023-02-02T05:59:17.469Z,5.97
2023-02-02T06:01:45.487Z,5.98
2023-02-02T06:04:12.729Z,5.97
2023-02-02T06:06:39.923Z,5.96
2023-02-02T06:09:06.900Z,5.95
2023-02-02T06:11:34.709Z,5.96
2023-02-02T06:14:02.100Z,5.97
2023-02-02T06:16:28.865Z,5.99
2023-02-02T06:18:55.816Z,5.97
2023-02-02T06:21:25.487Z,5.98
2023-02-02T06:23:53.934Z,5.97
2023-02-02T06:26:20.704Z,5.94
2023-02-02T06:28:52.642Z,5.94
2023-02-02T06:31:20.336Z,5.94
2023-02-02T06:33:48.539Z,5.93
2023-02-02T06:36:15.290Z,5.91
2023-02-02T06:38:42.022Z,5.91
2023-02-02T06:41:08.795Z,5.90
2023-02-02T06:43:35.440Z,5.90
2023-02-02T06:46:02.215Z,5.92
2023-02-02T06:48:29.023Z,5.95
2023-02-02T06:50:59.722Z,5.92
2023-02-02T06:53:27.296Z,5.90
2023-02-02T06:55:55.719Z,5.90
2023-02-02T06:58:22.927Z,5.89
2023-02-02T07:00:50.158Z,5.88
2023-02-02T07:03:17.036Z,5.88
2023-02-02T07:05:43.780Z,5.90
2023-02-02T07:08:10.485Z,5.91
2023-02-02T07:11:14.288Z,5.91
2023-02-02T07:13:25.349Z,5.90
2023-02-02T07:15:52.165Z,5.91
2023-02-02T07:18:18.865Z,5.90
2023-02-02T07:20:45.524Z,5.91
2023-02-02T07:23:12.261Z,5.92
2023-02-02T07:25:39.090Z,5.94
2023-02-02T07:28:06.036Z,5.96
2023-02-02T07:30:33.368Z,5.95
2023-02-02T07:33:00.532Z,5.97
2023-02-02T07:35:27.501Z,5.97
2023-02-02T07:37:55.402Z,6.02
2023-02-02T07:40:22.363Z,6.03
2023-02-02T07:42:49.322Z,6.09
2023-02-02T07:45:27.725Z,6.11
2023-02-02T07:48:00.937Z,6.14
2023-02-02T07:50:29.467Z,6.16
2023-02-02T07:52:56.545Z,6.12
2023-02-02T07:55:23.317Z,6.13
2023-02-02T07:57:52.663Z,6.16
2023-02-02T08:00:19.982Z,6.16
2023-02-02T08:02:49.251Z,6.17
2023-02-02T08:05:17.237Z,6.18
2023-02-02T08:07:46.086Z,6.21
2023-02-02T08:10:12.897Z,6.24
2023-02-02T08:12:39.724Z,6.27
2023-02-02T08:15:07.688Z,6.28
2023-02-02T08:17:34.414Z,6.32
2023-02-02T08:20:01.116Z,6.33
2023-02-02T08:22:27.803Z,6.31
2023-02-02T08:24:54.470Z,6.31
2023-02-02T08:27:21.207Z,6.33
2023-02-02T08:29:47.968Z,6.37
2023-02-02T08:32:15.031Z,6.34
2023-02-02T08:34:41.705Z,6.32
2023-02-02T08:37:08.495Z,6.34
2023-02-02T08:39:35.250Z,6.35
2023-02-02T08:42:02.027Z,6.37
2023-02-02T08:44:51.766Z,6.37
2023-02-02T08:47:15.475Z,6.37
2023-02-02T08:49:42.447Z,6.36
2023-02-02T08:52:09.389Z,6.37
2023-02-02T08:54:36.198Z,6.34
2023-02-02T08:57:02.991Z,6.33
2023-02-02T08:59:29.643Z,6.34
2023-02-02T09:01:56.553Z,6.35
2023-02-02T09:04:23.374Z,6.33
2023-02-02T09:06:50.261Z,6.35
2023-02-02T09:09:17.396Z,6.35
2023-02-02T09:11:44.615Z,6.37
2023-02-02T09:14:13.161Z,6.39
2023-02-02T09:16:40.522Z,6.38
2023-02-02T09:19:07.782Z,6.39
2023-02-02T09:21:37.658Z,6.38
2023-02-02T09:24:13.249Z,6.42
2023-02-02T09:26:40.537Z,6.38
2023-02-02T09:29:11.307Z,6.37
2023-02-02T09:31:38.482Z,6.38
2023-02-02T09:34:08.266Z,6.34
2023-02-02T09:36:35.544Z,6.32
2023-02-02T09:39:02.645Z,6.33
2023-02-02T09:41:38.561Z,6.29
2023-02-02T09:44:23.986Z,6.31
2023-02-02T09:47:08.622Z,6.33
2023-02-02T09:50:21.079Z,6.37
2023-02-02T09:53:18.423Z,6.40
2023-02-02T09:55:48.629Z,6.42
2023-02-02T09:58:36.797Z,6.41
2023-02-02T10:01:10.448Z,6.39
2023-02-02T10:03:40.047Z,6.38
2023-02-02T10:06:36.656Z,6.38
2023-02-02T10:09:07.763Z,6.38
2023-02-02T10:11:43.512Z,6.40
2023-02-02T10:14:23.644Z,6.44
2023-02-02T10:16:54.106Z,6.45
2023-02-02T10:19:25.278Z,6.44
2023-02-02T10:21:59.832Z,6.51
2023-02-02T10:24:29.575Z,6.52
2023-02-02T10:27:04.019Z,6.51
2023-02-02T10:29:48.791Z,6.50
2023-02-02T10:32:26.330Z,6.50
2023-02-02T10:35:10.899Z,6.49
2023-02-02T10:37:51.192Z,6.54
2023-02-02T10:40:26.869Z,6.65
2023-02-02T10:43:47.548Z,6.72
2023-02-02T10:46:24.272Z,6.72
2023-02-02T10:49:00.574Z,6.76
2023-02-02T10:51:29.338Z,6.79
2023-02-02T10:53:58.947Z,6.87
2023-02-02T10:56:52.625Z,6.90
2023-02-02T10:59:24.878Z,7.00
2023-02-02T11:01:51.900Z,7.10
2023-02-02T11:04:40.548Z,7.14
2023-02-02T11:07:07.267Z,7.16
2023-02-02T11:09:40.842Z,7.23
2023-02-02T11:12:20.548Z,7.25
2023-02-02T11:14:54.188Z,7.27
2023-02-02T11:17:25.739Z,7.23
2023-02-02T11:19:56.607Z,7.23
2023-02-02T11:22:30.099Z,7.22
2023-02-02T11:25:00.297Z,7.21
2023-02-02T11:27:39.894Z,7.17
2023-02-02T11:30:21.934Z,7.11
2023-02-02T11:32:50.673Z,7.09
2023-02-02T11:35:21.857Z,7.05
2023-02-02T11:38:14.521Z,7.01
2023-02-02T11:40:46.163Z,7.01
2023-02-02T11:43:24.974Z,6.99
2023-02-02T11:46:03.491Z,6.94
2023-02-02T11:48:34.669Z,6.94
2023-02-02T11:51:03.132Z,6.93
2023-02-02T11:53:34.689Z,6.93
2023-02-02T11:56:06.053Z,6.94
2023-02-02T11:58:48.609Z,6.91
2023-02-02T12:01:28.958Z,6.91
2023-02-02T12:04:01.557Z,6.91
2023-02-02T12:06:38.617Z,6.85
2023-02-02T12:09:34.878Z,6.81
2023-02-02T12:12:29.732Z,6.81
2023-02-02T12:15:38.254Z,6.79
2023-02-02T12:18:23.667Z,6.76
2023-02-02T12:21:00.983Z,6.73
2023-02-02T12:24:02.415Z,6.70
2023-02-02T12:26:31.919Z,6.70
2023-02-02T12:29:38.467Z,6.71
2023-02-02T12:32:19.828Z,6.72
2023-02-02T12:34:52.911Z,6.71
2023-02-02T12:37:28.958Z,6.71
2023-02-02T12:40:20.888Z,6.69
2023-02-02T12:43:04.319Z,6.67
2023-02-02T12:45:56.734Z,6.72
2023-02-02T12:48:39.796Z,6.75
2023-02-02T12:51:25.108Z,6.75
2023-02-02T12:54:33.744Z,6.76
2023-02-02T12:57:20.969Z,6.78
2023-02-02T13:00:26.922Z,6.82
2023-02-02T13:03:21.238Z,6.84
2023-02-02T13:06:02.403Z,6.85
2023-02-02T13:08:45.445Z,6.84
2023-02-02T13:11:32.591Z,6.81
2023-02-02T13:14:19.714Z,6.81
2023-02-02T13:16:52.165Z,6.81
2023-02-02T13:19:37.077Z,6.80
2023-02-02T13:22:10.847Z,6.83
2023-02-02T13:24:40.371Z,6.83
2023-02-02T13:27:13.922Z,6.83
2023-02-02T13:30:01.619Z,6.85
2023-02-02T13:32:38.309Z,6.92
2023-02-02T13:35:13.243Z,6.95
2023-02-02T13:37:48.123Z,6.99
2023-02-02T13:40:24.087Z,6.97
2023-02-02T13:43:15.886Z,7.00
2023-02-02T13:46:06.215Z,6.99
2023-02-02T13:48:51.295Z,7.01
2023-02-02T13:51:55.002Z,7.03
2023-02-02T13:54:40.177Z,7.02
2023-02-02T13:57:12.964Z,7.05
2023-02-02T13:59:52.464Z,7.07
2023-02-02T14:02:49.035Z,7.09
2023-02-02T14:05:29.050Z,7.11
2023-02-02T14:08:24.045Z,7.07
2023-02-02T14:10:54.016Z,7.10
2023-02-02T14:14:04.840Z,7.07
2023-02-02T14:16:31.680Z,7.07
2023-02-02T14:19:03.147Z,7.08
2023-02-02T14:21:33.092Z,7.08
2023-02-02T14:24:03.762Z,7.09
2023-02-02T14:26:48.566Z,7.07
2023-02-02T14:29:35.870Z,7.09
2023-02-02T14:32:27.906Z,7.12
2023-02-02T14:35:24.787Z,7.13
2023-02-02T14:38:08.141Z,7.15
2023-02-02T14:40:59.681Z,7.18
2023-02-02T14:43:46.088Z,7.19
2023-02-02T14:46:12.993Z,7.21
2023-02-02T14:48:47.208Z,7.17
2023-02-02T14:51:23.802Z,7.16
2023-02-02T14:53:58.215Z,7.14
2023-02-02T14:56:45.394Z,7.14
2023-02-02T14:59:20.428Z,7.15
2023-02-02T15:02:00.766Z,7.12
2023-02-02T15:04:29.167Z,7.12
2023-02-02T15:06:56.564Z,7.12
2023-02-02T15:09:23.393Z,7.13
2023-02-02T15:12:01.007Z,7.12
2023-02-02T15:15:02.390Z,7.14
2023-02-02T15:17:49.962Z,7.14
2023-02-02T15:20:26.519Z,7.13
2023-02-02T15:23:29.465Z,7.09
2023-02-02T15:26:05.792Z,7.10
2023-02-02T15:28:35.787Z,7.10
2023-02-02T15:31:14.810Z,7.08
2023-02-02T15:33:48.165Z,7.07
2023-02-02T15:36:28.737Z,7.06
2023-02-02T15:38:59.646Z,7.06
2023-02-02T15:41:32.556Z,7.05
2023-02-02T15:44:00.317Z,7.06
2023-02-02T15:46:32.441Z,7.06
2023-02-02T15:49:33.912Z,7.06
2023-02-02T15:52:12.357Z,7.04
2023-02-02T15:54:49.783Z,6.99
2023-02-02T15:57:35.125Z,7.00
2023-02-02T16:00:28.739Z,7.00
2023-02-02T16:03:14.116Z,7.00
2023-02-02T16:05:51.187Z,7.01
2023-02-02T16:08:24.563Z,6.99
2023-02-02T16:11:03.085Z,6.99
2023-02-02T16:13:30.594Z,7.00
2023-02-02T16:16:07.021Z,6.99
2023-02-02T16:18:35.466Z,6.97
2023-02-02T16:21:09.843Z,6.95
2023-02-02T16:23:37.703Z,6.93
2023-02-02T16:26:07.111Z,6.92
2023-02-02T16:28:34.645Z,6.88
2023-02-02T16:31:02.669Z,6.87
2023-02-02T16:33:37.796Z,6.85
2023-02-02T16:36:25.674Z,6.84
2023-02-02T16:38:54.523Z,6.84
2023-02-02T16:41:36.024Z,6.82
2023-02-02T16:44:33.339Z,6.82
2023-02-02T16:47:00.227Z,6.83
2023-02-02T16:49:30.826Z,6.84
2023-02-02T16:52:11.502Z,6.85
2023-02-02T16:54:42.420Z,6.86
2023-02-02T16:57:17.932Z,6.84
2023-02-02T16:59:49.581Z,6.83
2023-02-02T17:02:24.101Z,6.81
2023-02-02T17:05:02.133Z,6.77
2023-02-02T17:07:31.653Z,6.75
2023-02-02T17:10:16.755Z,6.77
2023-02-02T17:12:45.423Z,6.76
2023-02-02T17:15:18.310Z,6.71
2023-02-02T17:17:49.619Z,6.70
2023-02-02T17:20:17.808Z,6.71
2023-02-02T17:22:48.347Z,6.70
2023-02-02T17:25:17.385Z,6.68
2023-02-02T17:27:45.186Z,6.67
2023-02-02T17:30:17.574Z,6.65
2023-02-02T17:32:44.790Z,6.65
2023-02-02T17:35:16.361Z,6.63
2023-02-02T17:37:43.159Z,6.62
2023-02-02T17:40:14.824Z,6.61
2023-02-02T17:42:47.474Z,6.62
2023-02-02T17:45:18.996Z,6.65
2023-02-02T17:47:45.798Z,6.65
2023-02-02T17:50:12.569Z,6.65
2023-02-02T17:52:39.777Z,6.63
2023-02-02T17:55:13.636Z,6.63
2023-02-02T17:57:40.566Z,6.58
2023-02-02T18:00:08.050Z,6.55
2023-02-02T18:02:35.109Z,6.55
2023-02-02T18:05:03.654Z,6.55
2023-02-02T18:07:30.377Z,6.55
2023-02-02T18:09:57.233Z,6.49
2023-02-02T18:12:24.003Z,6.49
2023-02-02T18:14:50.705Z,6.50
2023-02-02T18:17:17.387Z,6.50
2023-02-02T18:19:45.229Z,6.54
2023-02-02T18:22:13.646Z,6.55
2023-02-02T18:24:41.102Z,6.55
2023-02-02T18:27:08.518Z,6.56
2023-02-02T18:29:35.519Z,6.57
2023-02-02T18:32:03.238Z,6.59
2023-02-02T18:34:32.235Z,6.58
2023-02-02T18:36:59.201Z,6.57
2023-02-02T18:39:26.334Z,6.56
2023-02-02T18:41:53.226Z,6.55
2023-02-02T18:44:20.060Z,6.55
2023-02-02T18:46:46.781Z,6.54
2023-02-02T18:49:13.491Z,6.55
2023-02-02T18:51:41.257Z,6.55
2023-02-02T18:54:10.936Z,6.55
2023-02-02T18:56:38.060Z,6.55
2023-02-02T18:59:06.284Z,6.54
2023-02-02T19:01:34.430Z,6.56
2023-02-02T19:04:01.423Z,6.56
2023-02-02T19:06:46.861Z,6.55
2023-02-02T19:09:17.163Z,6.55
2023-02-02T19:11:48.553Z,6.57
2023-02-02T19:14:26.869Z,6.58
2023-02-02T19:16:59.276Z,6.57
2023-02-02T19:19:33.970Z,6.58
2023-02-02T19:22:18.530Z,6.57
2023-02-02T19:24:45.776Z,6.57
2023-02-02T19:27:19.745Z,6.60
2023-02-02T19:29:50.600Z,6.61
2023-02-02T19:32:22.596Z,6.62
2023-02-02T19:34:52.450Z,6.63
2023-02-02T19:37:31.170Z,6.64
2023-02-02T19:40:08.179Z,6.62
2023-02-02T19:42:39.436Z,6.61
2023-02-02T19:45:21.747Z,6.62
2023-02-02T19:47:51.094Z,6.62
2023-02-02T19:50:24.467Z,6.62
2023-02-02T19:52:53.389Z,6.61
2023-02-02T19:55:27.198Z,6.62
2023-02-02T19:58:00.714Z,6.58
2023-02-02T20:00:29.878Z,6.61
2023-02-02T20:03:05.908Z,6.60
2023-02-02T20:05:34.380Z,6.60
2023-02-02T20:08:09.005Z,6.62
2023-02-02T20:10:39.369Z,6.62
2023-02-02T20:13:23.380Z,6.62
2023-02-02T20:15:52.330Z,6.64
2023-02-02T20:18:36.215Z,6.66
2023-02-02T20:21:07.552Z,6.66
2023-02-02T20:23:43.034Z,6.66
2023-02-02T20:26:36.422Z,6.65
2023-02-02T20:29:23.207Z,6.68
2023-02-02T20:31:52.734Z,6.68
2023-02-02T20:34:25.349Z,6.63
2023-02-02T20:36:57.428Z,6.64
2023-02-02T20:39:26.917Z,6.64
2023-02-02T20:41:56.973Z,6.63
2023-02-02T20:44:25.341Z,6.64
2023-02-02T20:46:52.555Z,6.63
2023-02-02T20:49:22.314Z,6.63
2023-02-02T20:51:49.301Z,6.63
2023-02-02T20:54:16.007Z,6.64
2023-02-02T20:56:42.990Z,6.64
2023-02-02T20:59:09.735Z,6.63
2023-02-02T21:01:36.525Z,6.64
2023-02-02T21:04:07.000Z,6.65
2023-02-02T21:06:35.585Z,6.67
2023-02-02T21:09:03.352Z,6.68
2023-02-02T21:11:30.552Z,6.69
2023-02-02T21:13:57.650Z,6.69
2023-02-02T21:16:24.879Z,6.69
2023-02-02T21:18:51.849Z,6.70
2023-02-02T21:21:20.926Z,6.69
2023-02-02T21:23:48.131Z,6.68
2023-02-02T21:26:16.635Z,6.70
2023-02-02T21:28:45.533Z,6.73
2023-02-02T21:31:14.325Z,6.74
2023-02-02T21:33:42.279Z,6.75
2023-02-02T21:36:22.891Z,6.74
2023-02-02T21:38:49.568Z,6.75
2023-02-02T21:41:16.232Z,6.75
2023-02-02T21:43:43.029Z,6.76
2023-02-02T21:46:24.725Z,6.76
2023-02-02T21:48:51.736Z,6.74
2023-02-02T21:51:25.671Z,6.75
2023-02-02T21:53:52.901Z,6.73
2023-02-02T21:56:28.694Z,6.73
2023-02-02T21:59:00.250Z,6.71
2023-02-02T22:01:34.349Z,6.72
2023-02-02T22:04:01.390Z,6.72
2023-02-02T22:06:46.625Z,6.71
2023-02-02T22:09:13.318Z,6.70
2023-02-02T22:11:46.374Z,6.70
2023-02-02T22:14:27.275Z,6.69
2023-02-02T22:16:58.086Z,6.68
2023-02-02T22:19:32.891Z,6.67
2023-02-02T22:22:08.650Z,6.67
2023-02-02T22:24:36.415Z,6.68
2023-02-02T22:27:03.398Z,6.68
2023-02-02T22:29:34.897Z,6.68
2023-02-02T22:32:01.609Z,6.68
2023-02-02T22:34:28.288Z,6.69
2023-02-02T22:36:55.012Z,6.67
2023-02-02T22:39:21.757Z,6.66
2023-02-02T22:41:48.597Z,6.67
2023-02-02T22:44:15.301Z,6.67
2023-02-02T22:46:42.036Z,6.63
2023-02-02T22:49:08.803Z,6.59
2023-02-02T22:51:35.512Z,6.56
2023-02-02T22:54:02.240Z,6.56
2023-02-02T22:56:29.028Z,6.57
2023-02-02T22:58:55.759Z,6.55
2023-02-02T23:01:22.593Z,6.51
2023-02-02T23:03:49.530Z,6.49
2023-02-02T23:06:16.203Z,6.50
2023-02-02T23:08:44.167Z,6.52
2023-02-02T23:11:10.910Z,6.52
2023-02-02T23:13:37.732Z,6.50
2023-02-02T23:16:04.706Z,6.51
2023-02-02T23:18:31.426Z,6.50
2023-02-02T23:20:58.153Z,6.52
2023-02-02T23:23:24.816Z,6.53
2023-02-02T23:25:51.588Z,6.55
2023-02-02T23:28:18.278Z,6.56
2023-02-02T23:30:45.036Z,6.61
2023-02-02T23:33:11.712Z,6.58
2023-02-02T23:35:38.379Z,6.60
2023-02-02T23:38:05.226Z,6.59
2023-02-02T23:40:31.898Z,6.58
2023-02-02T23:42:58.580Z,6.59
2023-02-02T23:45:25.355Z,6.60
2023-02-02T23:47:52.096Z,6.60
2023-02-02T23:50:18.954Z,6.62
2023-02-02T23:52:45.806Z,6.63
2023-02-02T23:55:13.745Z,6.63
2023-02-02T23:57:40.561Z,6.63
